Time;durP1;ratioP1;P1;durP2;ratioP2;P2;SDS_P1;SDS_P2;PMS_P1;PMS_P2;Temp;Humidity;BMP_temperature;BMP_pressure;BME280_temperature;BME280_humidity;BME280_pressure;Samples;Min_cycle;Max_cycle;Signal;HPM_P1;HPM_P2
2024/04/03 00:01:06;;;;;;;2.57;1.50;;;-0.60;99.90;;;;;;1918146;73;25308;-89
2024/04/03 00:03:56;;;;;;;3.27;1.50;;;-0.60;99.90;;;;;;1920867;73;25208;-90
2024/04/03 00:06:46;;;;;;;1.93;1.40;;;-0.60;99.90;;;;;;1916862;73;25648;-90
2024/04/03 00:09:39;;;;;;;1.73;1.43;;;-0.60;99.90;;;;;;1936072;73;25216;-90
2024/04/03 00:12:29;;;;;;;1.40;1.30;;;-0.50;99.90;;;;;;1919001;73;25176;-89
2024/04/03 00:15:24;;;;;;;1.83;1.17;;;-0.60;99.90;;;;;;1916653;73;25640;-90
2024/04/03 00:18:17;;;;;;;2.07;1.33;;;-0.60;99.90;;;;;;1917647;73;25263;-90
2024/04/03 00:21:10;;;;;;;3.90;1.57;;;-0.60;99.90;;;;;;1916834;73;25670;-90
2024/04/03 00:24:01;;;;;;;2.00;1.17;;;-0.60;99.90;;;;;;1927525;73;25273;-90
2024/04/03 00:26:52;;;;;;;1.77;1.60;;;-0.60;99.90;;;;;;1931371;73;25223;-90
2024/04/03 00:32:46;;;;;;;1.60;1.47;;;-0.70;99.90;;;;;;1964542;72;27812;-90
2024/04/03 00:35:52;;;;;;;2.90;1.50;;;-0.60;99.90;;;;;;1896112;73;25298;-90
2024/04/03 00:38:58;;;;;;;1.00;0.97;;;-0.60;99.90;;;;;;1900465;75;25216;-90
2024/04/03 00:45:03;;;;;;;1.40;1.30;;;-0.70;99.90;;;;;;1950195;72;27548;-90
2024/04/03 00:48:10;;;;;;;3.30;1.80;;;-0.80;99.90;;;;;;1863906;76;25267;-90
2024/04/03 00:51:03;;;;;;;1.57;1.40;;;-0.80;99.90;;;;;;1922740;73;25217;-89
2024/04/03 00:54:12;;;;;;;1.93;1.50;;;-0.80;99.90;;;;;;1893160;73;25234;-90
2024/04/03 00:57:03;;;;;;;2.03;1.77;;;-0.80;99.90;;;;;;1841873;76;25248;-90
2024/04/03 00:59:55;;;;;;;1.57;1.27;;;-0.80;99.90;;;;;;1862236;75;25240;-90
2024/04/03 01:02:47;;;;;;;3.03;1.57;;;-0.90;99.90;;;;;;1932025;73;25245;-90
2024/04/03 01:05:38;;;;;;;1.13;1.07;;;-0.90;99.90;;;;;;1939053;73;25163;-89
2024/04/03 01:08:53;;;;;;;2.23;1.47;;;-0.90;99.90;;;;;;1920330;73;25230;-89
2024/04/03 01:11:46;;;;;;;2.70;1.20;;;-0.80;99.90;;;;;;1911316;73;25202;-89
2024/04/03 01:17:32;;;;;;;0.80;0.80;;;-0.80;99.90;;;;;;1956228;72;27369;-89
2024/04/03 01:20:26;;;;;;;5.50;1.57;;;-0.80;99.90;;;;;;1948876;72;25301;-90
2024/04/03 01:26:12;;;;;;;2.30;1.40;;;-0.80;99.90;;;;;;1953650;72;26662;-90
2024/04/03 01:29:14;;;;;;;2.87;1.50;;;-0.90;99.90;;;;;;1918533;73;25268;-89
2024/04/03 01:46:14;;;;;;;1.47;1.30;;;-0.90;99.90;;;;;;1941993;72;26840;-89
2024/04/03 01:52:03;;;;;;;1.40;1.30;;;-1.10;99.90;;;;;;1936728;72;26981;-90
2024/04/03 01:55:30;;;;;;;1.33;1.13;;;-1.10;99.90;;;;;;1878897;76;25340;-89
2024/04/03 01:58:20;;;;;;;0.77;0.77;;;-1.00;99.90;;;;;;1805477;77;25361;-89
2024/04/03 02:01:12;;;;;;;1.30;1.20;;;-1.10;99.90;;;;;;1907309;73;25703;-90
2024/04/03 02:04:24;;;;;;;1.23;1.03;;;-1.10;99.90;;;;;;1911504;73;25178;-90
2024/04/03 02:07:21;;;;;;;2.30;1.57;;;-1.10;99.90;;;;;;1868527;76;25768;-90
2024/04/03 02:10:29;;;;;;;1.10;1.00;;;-1.10;99.90;;;;;;1867578;76;25252;-90
2024/04/03 02:13:22;;;;;;;0.83;0.80;;;-1.20;99.90;;;;;;1860578;76;25263;-89
2024/04/03 02:16:19;;;;;;;1.30;0.90;;;-1.20;99.90;;;;;;1864316;75;25299;-90
2024/04/03 02:19:18;;;;;;;1.13;0.87;;;-1.20;99.90;;;;;;1790339;79;25302;-89
2024/04/03 02:22:12;;;;;;;2.53;1.20;;;-1.20;99.90;;;;;;1915921;73;25237;-89
2024/04/03 02:25:13;;;;;;;0.73;0.73;;;-1.30;99.90;;;;;;1897050;73;25316;-89
2024/04/03 02:28:07;;;;;;;0.60;0.60;;;-1.30;99.90;;;;;;1870809;75;25268;-89
2024/04/03 02:31:06;;;;;;;4.27;0.90;;;-1.30;99.90;;;;;;1852727;76;25316;-89
2024/04/03 02:33:55;;;;;;;1.37;1.13;;;;;;;;;;1909412;74;25277;-89
2024/04/03 02:36:57;;;;;;;3.40;1.17;;;-1.40;99.90;;;;;;1910062;75;25154;-89
2024/04/03 02:39:50;;;;;;;0.93;0.87;;;-1.40;99.90;;;;;;1896621;75;25291;-89
2024/04/03 02:42:44;;;;;;;0.80;0.80;;;-1.40;99.90;;;;;;1904601;75;25743;-89
2024/04/03 02:45:40;;;;;;;0.60;0.60;;;-1.40;99.90;;;;;;1905426;75;25260;-89
2024/04/03 02:48:35;;;;;;;0.80;0.80;;;-1.40;99.90;;;;;;1867759;74;25259;-89
2024/04/03 02:51:25;;;;;;;1.67;1.10;;;-1.40;99.90;;;;;;1902261;74;25266;-89
2024/04/03 02:54:17;;;;;;;0.50;0.50;;;-1.40;99.90;;;;;;1912761;75;25209;-89
2024/04/03 02:57:10;;;;;;;1.23;0.83;;;-1.50;99.90;;;;;;1901936;75;25204;-88
2024/04/03 03:03:08;;;;;;;0.93;0.80;;;-1.50;99.90;;;;;;1956477;72;27037;-89
2024/04/03 03:06:02;;;;;;;1.37;0.73;;;-1.50;99.90;;;;;;1921163;73;25202;-89
2024/04/03 03:27:58;;;;;;;1.90;1.07;;;-1.70;99.90;;;;;;1982049;71;28601;-89
2024/04/03 03:30:50;;;;;;;1.03;1.00;;;-1.70;99.90;;;;;;1961719;72;25927;-89
2024/04/03 03:33:43;;;;;;;1.27;0.50;;;-1.80;99.90;;;;;;2035670;69;25305;-89
2024/04/03 03:36:35;;;;;;;0.73;0.73;;;-1.80;99.90;;;;;;2024436;70;25274;-89
2024/04/03 03:39:26;;;;;;;0.80;0.80;;;-1.80;99.90;;;;;;2000089;70;25224;-89
2024/04/03 04:01:15;;;;;;;0.50;0.50;;;-1.80;99.90;;;;;;1977522;71;27556;-89
2024/04/03 04:04:07;;;;;;;0.90;0.80;;;-1.90;99.90;;;;;;1960917;72;25260;-88
2024/04/03 04:06:56;;;;;;;1.17;0.90;;;-1.90;99.90;;;;;;2048672;69;25194;-90
2024/04/03 04:12:34;;;;;;;0.87;0.73;;;-2.00;99.90;;;;;;1970404;72;28219;-89
2024/04/03 04:15:29;;;;;;;0.73;0.73;;;-2.00;99.90;;;;;;1920070;75;25834;-89
2024/04/03 04:18:18;;;;;;;0.50;0.50;;;-2.10;99.90;;;;;;1919057;75;25628;-89
2024/04/03 04:23:51;;;;;;;0.50;0.50;;;-2.10;99.90;;;;;;2007997;69;27386;-90
2024/04/03 04:26:46;;;;;;;1.10;0.60;;;-2.20;99.90;;;;;;1866634;75;25289;-89
2024/04/03 04:29:39;;;;;;;0.80;0.60;;;-2.20;99.90;;;;;;1916544;74;26025;-89
2024/04/03 04:38:44;;;;;;;2.97;0.87;;;-2.20;99.90;;;;;;1948791;72;27619;-89
2024/04/03 04:41:37;;;;;;;0.83;0.70;;;-2.30;99.90;;;;;;1929911;73;25166;-89
2024/04/03 04:44:26;;;;;;;0.50;0.50;;;-2.30;99.90;;;;;;1906060;74;25316;-89
2024/04/03 04:52:59;;;;;;;1.20;0.77;;;-2.30;99.90;;;;;;1933407;72;27043;-90
2024/04/03 04:55:56;;;;;;;1.00;0.60;;;-2.20;99.90;;;;;;1893171;73;25301;-89
2024/04/03 05:01:33;;;;;;;0.40;0.40;;;-2.30;99.90;;;;;;1928389;73;27061;-90
2024/04/03 05:04:23;;;;;;;3.53;0.70;;;-2.30;99.90;;;;;;1919050;73;25214;-88
2024/04/03 05:07:12;;;;;;;0.67;0.67;;;-2.30;99.90;;;;;;1871142;76;25826;-88
2024/04/03 05:10:03;;;;;;;3.13;0.60;;;-2.30;99.90;;;;;;1887006;74;25691;-89
2024/04/03 05:12:53;;;;;;;0.50;0.50;;;-2.30;99.90;;;;;;1923249;74;25255;-89
2024/04/03 05:15:45;;;;;;;0.87;0.80;;;-2.40;99.90;;;;;;1879100;74;25259;-89
2024/04/03 05:18:42;;;;;;;0.60;0.60;;;-2.30;99.90;;;;;;1815413;76;25335;-89
2024/04/03 05:21:33;;;;;;;0.70;0.70;;;-2.30;99.90;;;;;;1926240;73;25672;-89
2024/04/03 05:34:25;;;;;;;0.70;0.70;;;-2.20;99.90;;;;;;1968967;72;28349;-90
2024/04/03 05:37:14;;;;;;;0.47;0.47;;;-2.20;99.90;;;;;;1920042;74;25192;-89
2024/04/03 05:40:05;;;;;;;0.47;0.47;;;-2.20;99.90;;;;;;1975118;71;25293;-89
2024/04/03 05:42:55;;;;;;;0.70;0.70;;;-2.20;99.90;;;;;;1983236;71;25203;-90
2024/04/03 05:45:45;;;;;;;0.40;0.40;;;-2.10;99.90;;;;;;1975202;70;25339;-90
2024/04/03 05:48:36;;;;;;;0.50;0.50;;;-2.20;99.90;;;;;;1994712;70;25195;-90
2024/04/03 05:51:25;;;;;;;0.50;0.50;;;-2.10;99.90;;;;;;1991573;72;25190;-90
2024/04/03 05:54:15;;;;;;;0.50;0.50;;;-2.10;99.90;;;;;;1995237;71;25254;-90
2024/04/03 05:57:05;;;;;;;3.10;0.60;;;-2.10;99.90;;;;;;1974824;72;25192;-90
2024/04/03 06:28:28;;;;;;;0.63;0.60;;;-1.60;99.90;;;;;;1943454;72;26487;-90
2024/04/03 06:31:19;;;;;;;0.70;0.50;;;-1.40;99.90;;;;;;1934926;72;25197;-89
2024/04/03 06:34:08;;;;;;;0.57;0.53;;;-1.50;99.90;;;;;;1920485;73;25724;-89
2024/04/03 06:36:58;;;;;;;0.50;0.50;;;-1.40;99.90;;;;;;1930181;71;25230;-90
2024/04/03 06:39:47;;;;;;;0.87;0.87;;;-1.30;99.90;;;;;;1928283;73;25275;-89
2024/04/03 06:42:35;;;;;;;0.60;0.60;;;-1.00;99.90;;;;;;1934582;73;25271;-89
2024/04/03 06:48:23;;;;;;;1.70;0.60;;;-0.80;99.90;;;;;;1959457;72;27078;-90
2024/04/03 06:51:13;;;;;;;0.63;0.63;;;-1.00;99.90;;;;;;1934931;73;25162;-90
2024/04/03 06:54:03;;;;;;;0.77;0.70;;;-0.80;99.90;;;;;;1919504;73;25286;-90
2024/04/03 06:56:52;;;;;;;0.50;0.50;;;-0.50;99.90;;;;;;1931606;73;25284;-90
2024/04/03 06:59:42;;;;;;;0.70;0.70;;;-0.60;99.90;;;;;;1924892;73;25356;-90
2024/04/03 07:02:33;;;;;;;0.63;0.63;;;-1.00;99.90;;;;;;1917087;73;25349;-90
2024/04/03 07:05:22;;;;;;;1.67;0.60;;;-1.00;99.90;;;;;;1931120;73;25203;-90
2024/04/03 07:08:12;;;;;;;0.77;0.70;;;-0.90;99.90;;;;;;1935643;73;25662;-91
2024/04/03 07:11:03;;;;;;;5.93;0.77;;;-0.70;99.90;;;;;;1921613;73;25285;-90
2024/04/03 07:13:54;;;;;;;2.30;0.60;;;-0.70;99.90;;;;;;1920047;73;25219;-91
2024/04/03 07:16:44;;;;;;;1.07;0.80;;;-0.70;99.90;;;;;;1925147;73;25167;-90
2024/04/03 07:19:33;;;;;;;0.37;0.37;;;-0.60;99.90;;;;;;1927249;73;25217;-90
2024/04/03 07:22:24;;;;;;;0.50;0.50;;;-0.40;99.90;;;;;;1928795;73;25228;-90
2024/04/03 07:27:58;;;;;;;0.50;0.50;;;-0.80;99.90;;;;;;1859251;75;26973;-91
2024/04/03 07:30:50;;;;;;;0.53;0.53;;;-0.70;99.90;;;;;;1778910;79;25231;-90
2024/04/03 07:33:40;;;;;;;2.00;0.60;;;-0.60;99.90;;;;;;1814379;78;25295;-90
2024/04/03 07:36:35;;;;;;;0.60;0.60;;;-0.50;99.90;;;;;;1830729;78;25654;-90
2024/04/03 07:39:25;;;;;;;9.00;0.80;;;-0.90;99.90;;;;;;1834963;78;25227;-90
2024/04/03 07:45:09;;;;;;;0.60;0.60;;;-0.30;99.90;;;;;;1953376;72;26743;-90
2024/04/03 07:51:29;;;;;;;7.33;0.73;;;-0.30;99.90;;;;;;2000368;71;31196;-90
2024/04/03 07:54:17;;;;;;;0.80;0.80;;;-0.10;99.90;;;;;;1973449;71;25989;-90
2024/04/03 08:11:50;;;;;;;4.43;0.80;;;0.10;99.90;;;;;;1835322;75;26924;-90
2024/04/03 08:17:45;;;;;;;0.87;0.70;;;0.20;99.90;;;;;;1964357;72;26914;-89
2024/04/03 08:21:01;;;;;;;0.97;0.83;;;0.40;99.90;;;;;;1917590;74;25153;-92
2024/04/03 08:23:50;;;;;;;1.50;1.13;;;0.50;99.90;;;;;;1959424;72;25205;-89
2024/04/03 08:26:42;;;;;;;0.60;0.60;;;0.10;99.90;;;;;;1929264;74;25573;-89
2024/04/03 08:35:49;;;;;;;0.70;0.70;;;0.70;99.90;;;;;;1873033;74;25269;-93
2024/04/03 12:02:29;;;;;;;0.80;0.60;;;3.10;99.90;;;;;;1951713;72;27378;-91
2024/04/03 12:05:21;;;;;;;5.10;0.40;;;3.10;99.90;;;;;;1952648;73;25221;-91
2024/04/03 12:08:17;;;;;;;0.60;0.60;;;3.00;99.90;;;;;;1909242;74;25822;-91
2024/04/03 12:11:12;;;;;;;1.30;0.90;;;3.00;99.90;;;;;;1951953;72;25236;-91
2024/04/03 12:14:08;;;;;;;0.53;0.53;;;2.70;99.90;;;;;;1920436;72;25319;-91
2024/04/03 12:17:02;;;;;;;0.63;0.63;;;2.90;99.90;;;;;;1938776;72;25162;-91
2024/04/03 12:20:06;;;;;;;0.43;0.43;;;2.90;99.90;;;;;;1927062;72;25874;-92
2024/04/03 13:16:36;;;;;;;0.87;0.80;;;3.40;99.90;;;;;;1959082;72;28139;-91
2024/04/03 13:19:26;;;;;;;1.27;0.90;;;3.70;99.90;;;;;;1924201;73;25191;-91
2024/04/03 13:22:33;;;;;;;0.70;0.70;;;3.30;99.90;;;;;;1935809;72;25675;-91
2024/04/03 13:25:22;;;;;;;0.97;0.80;;;3.40;99.90;;;;;;1901284;73;25236;-91
2024/04/03 13:30:58;;;;;;;3.53;0.77;;;3.70;99.90;;;;;;1942340;72;26962;-92
2024/04/03 13:33:51;;;;;;;0.50;0.50;;;3.70;99.90;;;;;;1913649;73;25210;-90
2024/04/03 13:39:41;;;;;;;5.00;1.20;;;3.20;99.90;;;;;;1959954;72;26898;-91
2024/04/03 13:47:11;;;;;;;1.17;0.90;;;3.10;99.90;;;;;;1989582;71;29759;-91
2024/04/03 13:50:01;;;;;;;0.70;0.70;;;3.20;99.90;;;;;;1959952;72;25748;-90
2024/04/03 13:52:56;;;;;;;0.70;0.70;;;3.30;99.90;;;;;;2043735;69;25177;-91
2024/04/03 13:55:49;;;;;;;0.73;0.73;;;3.50;99.90;;;;;;2032037;69;25675;-90
2024/04/03 14:03:08;;;;;;;0.77;0.77;;;3.40;99.90;;;;;;2060583;69;25246;-92
2024/04/03 14:05:58;;;;;;;0.80;0.80;;;3.40;99.90;;;;;;2037204;69;25152;-90
2024/04/03 14:08:51;;;;;;;1.23;0.93;;;3.30;99.90;;;;;;2060055;69;25131;-90
2024/04/03 14:11:40;;;;;;;4.53;0.80;;;3.40;99.90;;;;;;2045260;69;25241;-90
2024/04/03 14:14:31;;;;;;;0.60;0.60;;;3.60;99.90;;;;;;2024177;69;25263;-90
2024/04/03 14:17:22;;;;;;;3.13;0.77;;;3.70;99.90;;;;;;2037177;69;25209;-90
2024/04/03 14:20:12;;;;;;;0.60;0.60;;;3.60;99.90;;;;;;2039763;69;25698;-90
2024/04/03 14:23:01;;;;;;;0.80;0.80;;;3.50;99.90;;;;;;2032765;69;25190;-90
2024/04/03 14:25:51;;;;;;;0.73;0.60;;;3.50;99.90;;;;;;2037504;69;25264;-90
2024/04/03 14:28:43;;;;;;;2.40;0.70;;;3.60;99.90;;;;;;2001658;71;25218;-90
2024/04/03 14:48:10;;;;;;;1.67;0.90;;;3.40;99.90;;;;;;1975909;70;26971;-91
2024/04/03 14:51:00;;;;;;;3.33;0.80;;;3.40;99.90;;;;;;1971062;72;25268;-91
2024/04/03 14:53:49;;;;;;;0.70;0.70;;;3.60;99.90;;;;;;1956623;72;25263;-91
2024/04/03 14:56:46;;;;;;;0.73;0.73;;;3.40;99.90;;;;;;1960504;72;25698;-90
2024/04/03 14:59:36;;;;;;;0.77;0.77;;;3.50;99.90;;;;;;1960698;72;25203;-91
2024/04/03 15:02:24;;;;;;;5.30;0.90;;;3.30;99.90;;;;;;1974215;72;25267;-91
2024/04/03 15:05:14;;;;;;;0.97;0.80;;;3.30;99.90;;;;;;1940815;72;25728;-91
2024/04/03 15:08:13;;;;;;;1.00;0.90;;;3.20;99.90;;;;;;1940816;72;25660;-91
2024/04/03 15:11:04;;;;;;;0.63;0.63;;;3.30;99.90;;;;;;1957331;72;25326;-90
2024/04/03 15:14:01;;;;;;;0.70;0.70;;;3.10;99.90;;;;;;1956812;72;25326;-91
2024/04/03 15:16:55;;;;;;;0.40;0.40;;;3.00;99.90;;;;;;1944137;72;25178;-91
2024/04/03 15:19:45;;;;;;;3.23;0.73;;;3.00;99.90;;;;;;1961675;72;25221;-91
2024/04/03 15:22:38;;;;;;;2.17;0.90;;;3.00;99.90;;;;;;1942921;72;25715;-90
2024/04/03 15:25:28;;;;;;;1.43;0.90;;;3.10;99.90;;;;;;1945459;72;25198;-90
2024/04/03 15:39:09;;;;;;;0.80;0.80;;;3.10;99.90;;;;;;1880527;75;25286;-89
2024/04/03 15:44:53;;;;;;;0.80;0.80;;;3.10;99.90;;;;;;1949725;72;27022;-91
2024/04/03 15:47:43;;;;;;;0.67;0.67;;;3.10;99.90;;;;;;1922362;73;25253;-90
2024/04/03 16:00:20;;;;;;;2.17;1.07;;;3.20;99.90;;;;;;1949170;71;26862;-91
2024/04/03 16:03:14;;;;;;;3.00;1.00;;;3.10;99.90;;;;;;1933596;73;25199;-91
2024/04/03 16:06:06;;;;;;;1.80;0.90;;;3.00;99.90;;;;;;1945020;73;25226;-91
2024/04/03 16:08:59;;;;;;;2.67;0.80;;;2.90;99.90;;;;;;1931834;73;25253;-91
2024/04/03 16:11:48;;;;;;;0.50;0.50;;;3.00;99.90;;;;;;1945474;73;25277;-91
2024/04/03 16:14:36;;;;;;;1.33;0.70;;;3.00;99.90;;;;;;1935661;72;25738;-91
2024/04/03 16:17:30;;;;;;;1.00;1.00;;;2.80;99.90;;;;;;1927514;73;25268;-90
2024/04/03 16:20:20;;;;;;;0.90;0.90;;;2.80;99.90;;;;;;1923391;73;25166;-90
2024/04/03 16:23:27;;;;;;;1.43;1.33;;;2.80;99.90;;;;;;1877987;75;25248;-91
2024/04/03 16:26:17;;;;;;;1.17;0.80;;;2.80;99.90;;;;;;1899700;75;25254;-91
2024/04/03 16:29:12;;;;;;;1.53;1.00;;;2.80;99.90;;;;;;1875900;76;25231;-91
2024/04/03 16:34:56;;;;;;;1.90;1.03;;;2.70;99.90;;;;;;1951062;72;26870;-90
2024/04/03 16:40:42;;;;;;;2.10;0.80;;;2.50;99.90;;;;;;1900214;74;26782;-91
2024/04/03 16:43:35;;;;;;;1.33;0.70;;;2.50;99.90;;;;;;1863256;76;25247;-90
2024/04/03 16:46:26;;;;;;;0.50;0.50;;;2.50;99.90;;;;;;1856250;76;25214;-90
2024/04/03 16:49:14;;;;;;;0.83;0.83;;;2.40;99.90;;;;;;1870476;76;25178;-91
2024/04/03 16:52:06;;;;;;;0.70;0.50;;;2.20;99.90;;;;;;1861262;76;25217;-90
2024/04/03 16:55:11;;;;;;;5.63;1.00;;;2.20;99.90;;;;;;1867675;76;25659;-91
2024/04/03 16:58:43;;;;;;;0.70;0.70;;;2.10;99.90;;;;;;1861280;76;25345;-90
2024/04/03 17:01:33;;;;;;;1.03;0.93;;;2.10;99.90;;;;;;1874626;76;26644;-90
2024/04/03 17:04:21;;;;;;;3.13;0.80;;;2.00;99.90;;;;;;1855124;76;25775;-90
2024/04/03 17:10:25;;;;;;;4.77;1.00;;;2.00;99.90;;;;;;1959981;72;27494;-91
2024/04/03 17:16:34;;;;;;;10.00;1.40;;;1.90;99.90;;;;;;1976372;71;27003;-90
2024/04/03 17:19:23;;;;;;;0.87;0.87;;;1.90;99.90;;;;;;1924859;73;25275;-91
2024/04/03 17:22:13;;;;;;;0.80;0.80;;;1.80;99.90;;;;;;1851880;77;25243;-90
2024/04/03 17:25:09;;;;;;;1.20;0.80;;;1.70;99.90;;;;;;1895995;74;25314;-90
2024/04/03 17:27:58;;;;;;;4.00;0.80;;;1.70;99.90;;;;;;1913467;74;25264;-90
2024/04/03 17:30:53;;;;;;;2.83;1.10;;;1.60;99.90;;;;;;1922692;73;25223;-90
2024/04/03 17:33:45;;;;;;;1.23;1.13;;;1.60;99.90;;;;;;1937219;73;25695;-92
2024/04/03 17:36:36;;;;;;;1.63;0.90;;;1.70;99.90;;;;;;1946280;71;25264;-92
2024/04/03 17:39:25;;;;;;;6.63;1.03;;;1.50;99.90;;;;;;1944778;72;25890;-90
2024/04/03 17:42:16;;;;;;;1.00;0.60;;;1.50;99.90;;;;;;1951042;72;25213;-90
2024/04/03 17:45:08;;;;;;;0.97;0.80;;;1.50;99.90;;;;;;1947450;72;25264;-89
2024/04/03 17:47:57;;;;;;;1.07;0.80;;;1.40;99.90;;;;;;1930884;73;25190;-90
2024/04/03 17:53:51;;;;;;;0.80;0.80;;;1.30;99.90;;;;;;1945119;72;27005;-91
2024/04/03 17:56:42;;;;;;;0.80;0.80;;;1.20;99.90;;;;;;1921543;74;25221;-92
2024/04/03 17:59:33;;;;;;;1.53;1.00;;;1.10;99.90;;;;;;1905879;74;25350;-91
2024/04/03 18:02:24;;;;;;;2.63;1.10;;;1.10;99.90;;;;;;1905818;74;25258;-90
2024/04/03 18:05:20;;;;;;;5.07;0.87;;;1.10;99.90;;;;;;1913336;74;25256;-92
2024/04/03 18:08:12;;;;;;;2.33;0.83;;;1.10;99.90;;;;;;1910779;74;25210;-89
2024/04/03 18:11:05;;;;;;;1.20;1.10;;;1.00;99.90;;;;;;1916040;74;25221;-89
2024/04/03 18:13:56;;;;;;;1.87;1.00;;;0.90;99.90;;;;;;1902810;74;25242;-91
2024/04/03 18:16:50;;;;;;;3.40;1.20;;;0.90;99.90;;;;;;1906429;74;25708;-90
2024/04/03 18:19:42;;;;;;;1.60;1.00;;;0.80;99.90;;;;;;1905165;73;26342;-90
2024/04/03 18:22:36;;;;;;;3.57;1.47;;;0.80;99.90;;;;;;1905567;74;25230;-91
2024/04/03 18:25:34;;;;;;;4.47;1.20;;;0.70;99.90;;;;;;1916928;74;25234;-92
2024/04/03 18:28:24;;;;;;;3.60;1.20;;;0.70;99.90;;;;;;1919622;73;25681;-89
2024/04/03 18:31:14;;;;;;;3.50;1.37;;;0.70;99.90;;;;;;1922744;74;25217;-90
2024/04/03 18:34:04;;;;;;;4.60;1.10;;;0.70;99.90;;;;;;1891800;75;25755;-91
2024/04/03 18:53:24;;;;;;;3.23;1.20;;;0.20;99.90;;;;;;1934168;74;27531;-91
2024/04/03 19:40:44;;;;;;;1.10;1.10;;;-0.10;99.90;;;;;;1947864;72;26550;-89
2024/04/03 19:46:47;;;;;;;1.43;1.27;;;-0.10;99.90;;;;;;1952535;72;26939;-90
2024/04/03 19:49:37;;;;;;;2.40;1.30;;;-0.20;99.90;;;;;;1877986;75;25327;-89
2024/04/03 19:52:30;;;;;;;1.67;1.13;;;-0.20;99.90;;;;;;1862455;76;25315;-90
2024/04/03 19:55:21;;;;;;;5.63;1.30;;;-0.20;99.90;;;;;;1890064;74;25179;-90
2024/04/03 20:02:50;;;;;;;6.43;1.20;;;-0.20;99.90;;;;;;1967321;71;27936;-89
2024/04/03 20:09:48;;;;;;;5.93;1.10;;;-0.10;99.90;;;;;;1929673;73;25237;-90
2024/04/03 20:12:46;;;;;;;4.80;1.33;;;-0.10;99.90;;;;;;1928034;73;25626;-90
2024/04/03 20:15:55;;;;;;;3.90;1.20;;;-0.10;99.90;;;;;;1926526;73;25250;-90
2024/04/03 20:19:18;;;;;;;1.50;1.27;;;0.00;99.90;;;;;;1928283;73;25808;-90
2024/04/03 20:30:32;;;;;;;1.40;1.00;;;0.00;99.90;;;;;;1972271;72;27646;-90
2024/04/03 20:33:30;;;;;;;2.13;1.13;;;-0.10;99.90;;;;;;1930857;72;25271;-89
2024/04/03 20:36:27;;;;;;;1.37;1.17;;;0.00;99.90;;;;;;1961456;71;25758;-89
2024/04/03 20:42:55;;;;;;;1.60;1.00;;;0.00;99.90;;;;;;1954209;71;25239;-89
2024/04/03 20:45:47;;;;;;;1.40;1.10;;;-0.10;99.90;;;;;;1957540;71;25696;-89
2024/04/03 20:48:51;;;;;;;3.83;1.00;;;-0.10;99.90;;;;;;1948136;71;25743;-89
2024/04/03 20:51:51;;;;;;;1.43;0.87;;;-0.10;99.90;;;;;;1918948;73;25302;-89
2024/04/03 20:54:40;;;;;;;3.33;0.97;;;-0.10;99.90;;;;;;1924175;73;25287;-88
2024/04/03 21:00:52;;;;;;;2.50;1.20;;;-0.10;99.90;;;;;;1915324;72;26552;-89
2024/04/03 21:04:04;;;;;;;0.60;0.60;;;-0.10;99.90;;;;;;1929463;73;25233;-89
2024/04/03 21:07:09;;;;;;;2.63;0.80;;;-0.20;99.90;;;;;;1897656;74;25653;-89
2024/04/03 21:10:09;;;;;;;5.60;0.90;;;-0.20;99.90;;;;;;1903454;73;25196;-89
2024/04/03 21:12:59;;;;;;;0.53;0.53;;;-0.10;99.90;;;;;;1937124;73;25206;-89
2024/04/03 21:16:26;;;;;;;0.67;0.63;;;-0.20;99.90;;;;;;1908227;73;25323;-89
2024/04/03 21:19:27;;;;;;;1.77;1.00;;;-0.20;99.90;;;;;;1905841;73;25253;-88
2024/04/03 21:22:19;;;;;;;0.70;0.50;;;-0.20;99.90;;;;;;1910708;73;25930;-88
2024/04/03 21:25:17;;;;;;;2.27;1.00;;;-0.20;99.90;;;;;;1915391;73;25246;-89
2024/04/03 21:28:12;;;;;;;0.60;0.60;;;-0.20;99.90;;;;;;1902175;73;25278;-89
2024/04/03 21:31:09;;;;;;;9.50;1.10;;;-0.30;99.90;;;;;;1906344;73;25242;-89
2024/04/03 21:34:13;;;;;;;0.73;0.73;;;-0.30;99.90;;;;;;1900241;73;25279;-89
2024/04/03 21:37:11;;;;;;;0.47;0.47;;;-0.30;99.90;;;;;;1904824;73;25262;-89
2024/04/03 21:40:03;;;;;;;0.60;0.60;;;-0.20;99.90;;;;;;1899192;73;25227;-89
2024/04/03 21:43:17;;;;;;;1.17;0.60;;;-0.30;99.90;;;;;;1905286;73;25245;-89
2024/04/03 22:00:49;;;;;;;0.77;0.70;;;-0.30;99.90;;;;;;1941739;72;27427;-89
2024/04/03 22:03:55;;;;;;;0.80;0.80;;;-0.40;99.90;;;;;;1931364;73;25249;-89
2024/04/03 22:07:17;;;;;;;1.83;1.03;;;-0.40;99.90;;;;;;1933350;73;25205;-89
2024/04/03 22:14:14;;;;;;;1.30;0.80;;;-0.30;99.90;;;;;;1925318;73;25776;-89
2024/04/03 22:23:23;;;;;;;1.73;1.00;;;-0.40;99.90;;;;;;1920022;72;25277;-89
2024/04/03 22:26:33;;;;;;;1.50;1.10;;;-0.30;99.90;;;;;;1920946;72;25285;-90
2024/04/03 22:29:31;;;;;;;2.10;1.17;;;-0.40;99.90;;;;;;1909295;72;25376;-89
2024/04/03 22:32:32;;;;;;;3.10;1.20;;;-0.50;99.90;;;;;;1880160;75;25244;-89
2024/04/03 22:35:41;;;;;;;0.80;0.80;;;-0.40;99.90;;;;;;1930078;72;25255;-89
2024/04/03 22:42:26;;;;;;;1.53;1.33;;;-0.60;99.90;;;;;;1952781;70;27447;-89
2024/04/03 22:49:28;;;;;;;2.03;1.20;;;-0.70;99.90;;;;;;1954563;72;25259;-89
2024/04/03 22:52:57;;;;;;;0.90;0.70;;;-0.80;99.90;;;;;;1926451;72;25303;-89
2024/04/03 23:02:59;;;;;;;1.27;1.20;;;-0.90;99.90;;;;;;1947833;72;28783;-90
2024/04/03 23:10:16;;;;;;;3.27;1.40;;;-1.10;99.90;;;;;;1937713;73;25166;-89
2024/04/03 23:13:09;;;;;;;4.50;1.20;;;-1.10;99.90;;;;;;1903671;74;25184;-89
2024/04/03 23:16:04;;;;;;;0.93;0.60;;;-1.10;99.90;;;;;;1936783;73;25274;-89
2024/04/03 23:30:04;;;;;;;0.90;0.60;;;-1.20;99.90;;;;;;1942577;72;28830;-89
2024/04/03 23:36:08;;;;;;;1.33;1.00;;;-1.30;99.90;;;;;;1950390;72;27060;-89
2024/04/03 23:39:09;;;;;;;0.87;0.70;;;-1.40;99.90;;;;;;1946694;73;25126;-89
2024/04/03 23:42:27;;;;;;;0.67;0.60;;;-1.40;99.90;;;;;;1928890;73;25221;-89
2024/04/03 23:45:33;;;;;;;2.07;0.97;;;-1.40;99.90;;;;;;1873892;76;25335;-89
2024/04/03 23:48:28;;;;;;;3.80;0.93;;;-1.40;99.90;;;;;;1932714;73;25201;-89
2024/04/03 23:51:22;;;;;;;3.07;1.00;;;-1.40;99.90;;;;;;1929068;73;25678;-88
2024/04/03 23:54:16;;;;;;;1.10;0.90;;;-1.50;99.90;;;;;;1929875;73;25254;-90
2024/04/03 23:57:12;;;;;;;2.27;1.10;;;-1.50;99.90;;;;;;1922380;73;25166;-90
